createdAt,value
2023-01-29T00:01:10.725Z,32.13
2023-01-29T00:03:37.585Z,31.97
2023-01-29T00:06:04.621Z,32.07
2023-01-29T00:08:31.361Z,32.05
2023-01-29T00:10:58.091Z,32.10
2023-01-29T00:13:24.821Z,31.98
2023-01-29T00:15:51.570Z,31.94
2023-01-29T00:18:18.309Z,32.08
2023-01-29T00:20:45.081Z,31.91
2023-01-29T00:23:11.832Z,33.41
2023-01-29T00:25:39.370Z,36.29
2023-01-29T00:28:06.097Z,38.73
2023-01-29T00:30:32.872Z,35.49
2023-01-29T00:32:59.627Z,34.41
2023-01-29T00:35:26.372Z,33.55
2023-01-29T00:37:53.180Z,33.33
2023-01-29T00:40:19.975Z,33.27
2023-01-29T00:43:05.486Z,32.88
2023-01-29T00:45:32.330Z,32.76
2023-01-29T00:47:59.088Z,32.55
2023-01-29T00:50:25.874Z,32.48
2023-01-29T00:52:54.528Z,32.52
2023-01-29T00:55:21.365Z,32.28
2023-01-29T00:57:48.319Z,32.07
2023-01-29T01:00:15.395Z,31.93
2023-01-29T01:03:01.284Z,32.24
2023-01-29T01:05:28.160Z,32.11
2023-01-29T01:07:54.906Z,32.00
2023-01-29T01:10:21.739Z,31.84
2023-01-29T01:12:48.559Z,32.09
2023-01-29T01:15:15.328Z,31.87
2023-01-29T01:17:42.097Z,31.73
2023-01-29T01:20:08.830Z,31.73
2023-01-29T01:22:35.901Z,32.30
2023-01-29T01:25:02.730Z,35.42
2023-01-29T01:27:29.646Z,37.92
2023-01-29T01:29:56.387Z,36.32
2023-01-29T01:32:23.150Z,34.52
2023-01-29T01:34:49.872Z,33.72
2023-01-29T01:37:16.599Z,33.36
2023-01-29T01:39:43.347Z,33.13
2023-01-29T01:42:10.077Z,32.79
2023-01-29T01:44:36.804Z,32.61
2023-01-29T01:47:03.548Z,32.75
2023-01-29T01:49:31.217Z,32.59
2023-01-29T01:51:58.189Z,32.28
2023-01-29T01:54:24.942Z,32.27
2023-01-29T01:56:52.425Z,32.15
2023-01-29T01:59:19.179Z,32.07
2023-01-29T02:01:51.081Z,31.73
2023-01-29T02:04:36.429Z,31.69
2023-01-29T02:07:21.742Z,31.84
2023-01-29T02:09:48.948Z,31.98
2023-01-29T02:12:15.715Z,31.93
2023-01-29T02:14:42.471Z,31.60
2023-01-29T02:17:09.209Z,31.81
2023-01-29T02:19:35.949Z,33.59
2023-01-29T02:22:03.414Z,35.10
2023-01-29T02:24:30.225Z,36.95
2023-01-29T02:26:56.983Z,35.32
2023-01-29T02:29:25.111Z,33.89
2023-01-29T02:31:51.938Z,33.06
2023-01-29T02:34:18.770Z,33.10
2023-01-29T02:36:45.654Z,32.89
2023-01-29T02:39:12.390Z,32.67
2023-01-29T02:41:39.133Z,32.59
2023-01-29T02:44:05.925Z,32.44
2023-01-29T02:46:32.657Z,31.99
2023-01-29T02:49:00.036Z,32.40
2023-01-29T02:51:26.797Z,32.22
2023-01-29T02:53:53.547Z,32.01
2023-01-29T02:56:20.294Z,31.99
2023-01-29T02:58:47.049Z,31.94
2023-01-29T03:01:13.839Z,31.90
2023-01-29T03:03:40.598Z,31.65
2023-01-29T03:06:07.476Z,31.93
2023-01-29T03:08:37.247Z,31.63
2023-01-29T03:11:04.147Z,31.79
2023-01-29T03:13:30.879Z,33.87
2023-01-29T03:16:01.441Z,35.40
2023-01-29T03:18:30.545Z,36.16
2023-01-29T03:20:58.375Z,34.55
2023-01-29T03:23:26.942Z,33.69
2023-01-29T03:26:12.625Z,33.36
2023-01-29T03:28:57.976Z,32.82
2023-01-29T03:31:43.373Z,32.67
2023-01-29T03:34:16.323Z,32.53
2023-01-29T03:36:45.811Z,32.37
2023-01-29T03:39:12.544Z,32.46
2023-01-29T03:41:39.288Z,32.24
2023-01-29T03:44:06.075Z,32.22
2023-01-29T03:46:32.802Z,31.85
2023-01-29T03:48:59.533Z,31.84
2023-01-29T03:51:26.280Z,31.91
2023-01-29T03:53:53.098Z,31.90
2023-01-29T03:56:19.882Z,31.87
2023-01-29T03:58:46.646Z,31.81
2023-01-29T04:01:13.438Z,31.61
2023-01-29T04:03:40.202Z,31.86
2023-01-29T04:06:09.552Z,31.67
2023-01-29T04:08:36.514Z,33.15
2023-01-29T04:11:03.561Z,34.80
2023-01-29T04:13:30.317Z,37.71
2023-01-29T04:15:57.074Z,35.58
2023-01-29T04:18:24.032Z,33.93
2023-01-29T04:20:50.795Z,32.89
2023-01-29T04:23:17.524Z,32.79
2023-01-29T04:25:44.341Z,32.70
2023-01-29T04:28:11.285Z,32.49
2023-01-29T04:30:38.048Z,32.28
2023-01-29T04:33:04.888Z,32.16
2023-01-29T04:35:31.770Z,32.31
2023-01-29T04:37:58.520Z,32.21
2023-01-29T04:40:26.583Z,31.92
2023-01-29T04:42:53.354Z,31.75
2023-01-29T04:45:20.103Z,31.74
2023-01-29T04:47:46.852Z,31.95
2023-01-29T04:50:13.841Z,31.76
2023-01-29T04:52:40.720Z,31.82
2023-01-29T04:55:07.453Z,31.86
2023-01-29T04:57:34.202Z,31.54
2023-01-29T05:00:00.948Z,31.56
2023-01-29T05:02:28.369Z,31.99
2023-01-29T05:04:55.325Z,34.81
2023-01-29T05:07:22.053Z,36.70
2023-01-29T05:09:48.789Z,36.73
2023-01-29T05:12:15.541Z,34.60
2023-01-29T05:14:42.341Z,33.62
2023-01-29T05:17:09.067Z,33.26
2023-01-29T05:19:35.814Z,32.61
2023-01-29T05:22:02.562Z,32.78
2023-01-29T05:24:29.353Z,32.40
2023-01-29T05:27:14.953Z,32.32
2023-01-29T05:29:41.688Z,32.36
2023-01-29T05:32:08.454Z,32.15
2023-01-29T05:34:35.219Z,32.01
2023-01-29T05:37:02.114Z,31.96
2023-01-29T05:39:28.875Z,32.04
2023-01-29T05:41:55.643Z,31.89
2023-01-29T05:44:22.391Z,31.90
2023-01-29T05:46:49.201Z,32.08
2023-01-29T05:49:15.964Z,31.65
2023-01-29T05:51:42.707Z,31.72
2023-01-29T05:54:09.444Z,31.66
2023-01-29T05:56:36.189Z,31.59
2023-01-29T05:59:02.927Z,32.03
2023-01-29T06:01:29.710Z,33.81
2023-01-29T06:03:56.468Z,34.11
2023-01-29T06:06:23.201Z,35.39
2023-01-29T06:08:50.015Z,34.23
2023-01-29T06:11:18.178Z,33.27
2023-01-29T06:13:44.953Z,33.01
2023-01-29T06:16:11.806Z,32.75
2023-01-29T06:18:38.610Z,32.44
2023-01-29T06:21:05.372Z,32.23
2023-01-29T06:23:32.109Z,32.10
2023-01-29T06:25:58.858Z,32.07
2023-01-29T06:28:25.624Z,32.20
2023-01-29T06:30:52.391Z,31.91
2023-01-29T06:33:19.151Z,32.06
2023-01-29T06:35:45.884Z,31.70
2023-01-29T06:38:12.614Z,31.61
2023-01-29T06:40:39.438Z,31.62
2023-01-29T06:43:06.170Z,31.55
2023-01-29T06:45:33.016Z,31.64
2023-01-29T06:48:01.395Z,31.51
2023-01-29T06:50:28.421Z,31.47
2023-01-29T06:52:55.157Z,32.88
2023-01-29T06:55:21.919Z,33.46
2023-01-29T06:57:48.649Z,34.37
2023-01-29T07:00:15.916Z,34.33
2023-01-29T07:02:42.802Z,33.95
2023-01-29T07:05:09.530Z,33.59
2023-01-29T07:07:36.966Z,32.97
2023-01-29T07:10:03.936Z,32.62
2023-01-29T07:12:30.658Z,32.52
2023-01-29T07:14:57.409Z,32.41
2023-01-29T07:17:24.166Z,32.03
2023-01-29T07:19:50.943Z,32.21
2023-01-29T07:22:17.723Z,31.92
2023-01-29T07:24:44.557Z,31.93
2023-01-29T07:27:11.276Z,31.83
2023-01-29T07:29:38.024Z,31.83
2023-01-29T07:32:04.784Z,31.71
2023-01-29T07:34:31.536Z,31.88
2023-01-29T07:36:58.269Z,31.61
2023-01-29T07:39:25.031Z,31.77
2023-01-29T07:41:51.774Z,31.49
2023-01-29T07:44:18.527Z,33.13
2023-01-29T07:46:45.310Z,34.58
2023-01-29T07:49:12.087Z,36.58
2023-01-29T07:51:38.817Z,35.59
2023-01-29T07:54:05.586Z,34.25
2023-01-29T07:56:32.334Z,33.34
2023-01-29T07:58:59.076Z,33.03
2023-01-29T08:01:25.840Z,32.61
2023-01-29T08:03:52.785Z,32.48
2023-01-29T08:06:19.541Z,32.17
2023-01-29T08:08:46.265Z,32.13
2023-01-29T08:11:13.057Z,32.07
2023-01-29T08:13:39.855Z,31.87
2023-01-29T08:16:06.668Z,32.06
2023-01-29T08:18:33.479Z,31.65
2023-01-29T08:21:00.635Z,31.61
2023-01-29T08:23:27.404Z,31.77
2023-01-29T08:25:54.183Z,31.46
2023-01-29T08:28:21.143Z,31.47
2023-01-29T08:30:47.935Z,31.40
2023-01-29T08:33:15.277Z,31.49
2023-01-29T08:35:43.014Z,31.34
2023-01-29T08:38:10.487Z,31.30
2023-01-29T08:40:37.229Z,32.97
2023-01-29T08:43:05.489Z,35.60
2023-01-29T08:45:32.985Z,37.35
2023-01-29T08:47:59.737Z,35.12
2023-01-29T08:50:26.591Z,34.00
2023-01-29T08:52:53.377Z,33.30
2023-01-29T08:55:20.119Z,32.63
2023-01-29T08:57:46.841Z,32.51
2023-01-29T09:00:13.638Z,32.25
2023-01-29T09:02:40.427Z,32.07
2023-01-29T09:05:07.196Z,32.17
2023-01-29T09:07:33.946Z,31.96
2023-01-29T09:10:00.679Z,31.83
2023-01-29T09:12:27.453Z,31.84
2023-01-29T09:14:54.220Z,31.64
2023-01-29T09:17:20.958Z,31.72
2023-01-29T09:19:47.710Z,31.71
2023-01-29T09:22:14.682Z,31.50
2023-01-29T09:24:41.410Z,31.72
2023-01-29T09:27:09.897Z,31.68
2023-01-29T09:29:36.668Z,31.53
2023-01-29T09:32:03.432Z,31.53
2023-01-29T09:34:30.176Z,33.31
2023-01-29T09:36:56.950Z,35.97
2023-01-29T09:39:23.702Z,37.77
2023-01-29T09:41:51.424Z,35.13
2023-01-29T09:44:18.193Z,33.71
2023-01-29T09:46:44.928Z,33.19
2023-01-29T09:49:11.669Z,32.58
2023-01-29T09:51:38.448Z,32.39
2023-01-29T09:54:05.194Z,32.41
2023-01-29T09:56:31.980Z,32.29
2023-01-29T09:59:01.284Z,32.29
2023-01-29T10:01:28.572Z,32.20
2023-01-29T10:03:55.807Z,31.97
2023-01-29T10:06:22.640Z,31.87
2023-01-29T10:08:49.523Z,31.60
2023-01-29T10:11:16.347Z,31.74
2023-01-29T10:13:43.087Z,31.92
2023-01-29T10:16:09.854Z,31.66
2023-01-29T10:18:36.601Z,31.59
2023-01-29T10:21:04.488Z,31.75
2023-01-29T10:23:33.405Z,31.52
2023-01-29T10:26:01.097Z,31.58
2023-01-29T10:28:27.835Z,31.74
2023-01-29T10:30:54.691Z,32.96
2023-01-29T10:33:21.506Z,36.29
2023-01-29T10:35:49.978Z,38.17
2023-01-29T10:38:16.768Z,35.71
2023-01-29T10:40:43.505Z,34.34
2023-01-29T10:43:10.249Z,33.63
2023-01-29T10:45:36.981Z,33.07
2023-01-29T10:48:04.972Z,32.81
2023-01-29T10:50:33.215Z,32.42
2023-01-29T10:52:59.965Z,32.46
2023-01-29T10:55:26.710Z,32.30
2023-01-29T10:57:53.536Z,32.07
2023-01-29T11:00:20.335Z,32.01
2023-01-29T11:02:48.187Z,31.98
2023-01-29T11:05:15.291Z,31.89
2023-01-29T11:07:42.194Z,31.85
2023-01-29T11:10:08.981Z,31.61
2023-01-29T11:12:36.963Z,31.87
2023-01-29T11:15:03.703Z,31.42
2023-01-29T11:17:30.470Z,31.59
2023-01-29T11:19:57.210Z,31.72
2023-01-29T11:22:23.950Z,31.57
2023-01-29T11:24:50.680Z,31.44
2023-01-29T11:27:17.548Z,31.48
2023-01-29T11:29:44.303Z,33.53
2023-01-29T11:32:11.048Z,35.58
2023-01-29T11:34:37.792Z,37.97
2023-01-29T11:37:04.828Z,35.23
2023-01-29T11:39:31.614Z,33.91
2023-01-29T11:41:58.798Z,32.78
2023-01-29T11:44:25.541Z,32.57
2023-01-29T11:46:52.319Z,32.46
2023-01-29T11:49:20.852Z,32.35
2023-01-29T11:51:48.235Z,32.11
2023-01-29T11:54:14.975Z,32.25
2023-01-29T11:56:41.747Z,32.04
2023-01-29T11:59:08.516Z,31.90
2023-01-29T12:01:36.127Z,32.05
2023-01-29T12:04:02.929Z,31.96
2023-01-29T12:06:29.839Z,31.87
2023-01-29T12:08:57.256Z,31.57
2023-01-29T12:11:24.029Z,31.61
2023-01-29T12:13:50.757Z,31.66
2023-01-29T12:16:18.088Z,31.63
2023-01-29T12:18:45.046Z,31.42
2023-01-29T12:21:11.778Z,31.56
2023-01-29T12:23:38.516Z,31.53
2023-01-29T12:26:05.320Z,32.97
2023-01-29T12:28:32.045Z,36.31
2023-01-29T12:30:59.202Z,37.95
2023-01-29T12:33:25.959Z,35.49
2023-01-29T12:35:53.300Z,34.26
2023-01-29T12:38:20.111Z,33.33
2023-01-29T12:40:46.890Z,32.90
2023-01-29T12:43:13.682Z,32.93
2023-01-29T12:45:40.420Z,32.43
2023-01-29T12:48:07.263Z,32.35
2023-01-29T12:50:34.013Z,32.06
2023-01-29T12:53:01.000Z,32.08
2023-01-29T12:55:27.775Z,32.04
2023-01-29T12:57:54.544Z,32.04
2023-01-29T13:00:21.337Z,31.78
2023-01-29T13:02:48.153Z,31.85
2023-01-29T13:05:14.957Z,31.58
2023-01-29T13:07:41.678Z,31.74
2023-01-29T13:10:08.514Z,31.81
2023-01-29T13:12:35.245Z,31.77
2023-01-29T13:15:01.998Z,31.46
2023-01-29T13:17:28.737Z,31.59
2023-01-29T13:19:55.478Z,31.32
2023-01-29T13:22:22.227Z,33.73
2023-01-29T13:24:58.725Z,35.80
2023-01-29T13:27:30.264Z,37.75
2023-01-29T13:29:57.028Z,35.20
2023-01-29T13:32:24.629Z,33.91
2023-01-29T13:34:51.440Z,33.14
2023-01-29T13:37:19.570Z,32.59
2023-01-29T13:39:46.308Z,32.69
2023-01-29T13:42:13.042Z,32.47
2023-01-29T13:44:39.955Z,32.41
2023-01-29T13:47:06.809Z,32.36
2023-01-29T13:49:33.627Z,32.06
2023-01-29T13:52:00.414Z,31.92
2023-01-29T13:54:27.462Z,31.91
2023-01-29T13:56:54.368Z,31.64
2023-01-29T13:59:21.120Z,31.83
2023-01-29T14:01:47.914Z,31.83
2023-01-29T14:04:14.643Z,31.99
2023-01-29T14:06:41.408Z,31.34
2023-01-29T14:09:08.150Z,31.55
2023-01-29T14:11:34.958Z,31.50
2023-01-29T14:14:01.707Z,31.47
2023-01-29T14:16:28.723Z,31.88
2023-01-29T14:18:55.559Z,33.88
2023-01-29T14:21:23.782Z,36.44
2023-01-29T14:23:50.567Z,38.49
2023-01-29T14:26:17.419Z,34.85
2023-01-29T14:28:44.248Z,33.69
2023-01-29T14:31:11.099Z,33.19
2023-01-29T14:33:37.954Z,32.73
2023-01-29T14:36:04.739Z,32.62
2023-01-29T14:38:31.483Z,32.52
2023-01-29T14:40:58.207Z,32.49
2023-01-29T14:43:24.950Z,32.35
2023-01-29T14:45:51.782Z,31.96
2023-01-29T14:48:18.546Z,31.97
2023-01-29T14:50:45.322Z,32.09
2023-01-29T14:53:12.067Z,31.78
2023-01-29T14:55:38.859Z,31.58
2023-01-29T14:58:05.622Z,31.97
2023-01-29T15:00:32.376Z,31.56
2023-01-29T15:03:02.306Z,31.70
2023-01-29T15:05:29.325Z,31.75
2023-01-29T15:07:56.136Z,31.56
2023-01-29T15:10:23.530Z,31.60
2023-01-29T15:12:50.470Z,34.41
2023-01-29T15:15:17.702Z,36.43
2023-01-29T15:17:44.763Z,37.75
2023-01-29T15:20:11.516Z,34.84
2023-01-29T15:22:38.260Z,33.97
2023-01-29T15:25:05.090Z,33.40
2023-01-29T15:27:31.836Z,32.97
2023-01-29T15:29:58.606Z,32.63
2023-01-29T15:32:29.525Z,32.66
2023-01-29T15:34:56.583Z,32.47
2023-01-29T15:37:23.315Z,32.31
2023-01-29T15:39:52.098Z,32.37
2023-01-29T15:42:25.530Z,32.15
2023-01-29T15:44:54.247Z,32.13
2023-01-29T15:47:21.022Z,31.91
2023-01-29T15:49:48.966Z,31.76
2023-01-29T15:52:15.711Z,31.57
2023-01-29T15:54:42.447Z,31.89
2023-01-29T15:57:09.189Z,31.62
2023-01-29T15:59:36.013Z,31.71
2023-01-29T16:02:02.747Z,31.64
2023-01-29T16:04:31.229Z,31.63
2023-01-29T16:06:57.973Z,31.32
2023-01-29T16:09:24.765Z,31.18
2023-01-29T16:11:51.693Z,32.92
2023-01-29T16:14:18.924Z,35.91
2023-01-29T16:16:45.782Z,37.65
2023-01-29T16:19:12.536Z,35.56
2023-01-29T16:21:39.276Z,34.08
2023-01-29T16:24:09.192Z,33.64
2023-01-29T16:26:36.001Z,33.07
2023-01-29T16:29:02.764Z,32.74
2023-01-29T16:31:29.691Z,32.65
2023-01-29T16:33:56.622Z,32.33
2023-01-29T16:36:23.440Z,32.10
2023-01-29T16:38:50.173Z,32.11
2023-01-29T16:41:16.983Z,32.24
2023-01-29T16:43:43.790Z,32.10
2023-01-29T16:46:10.565Z,32.16
2023-01-29T16:48:37.315Z,31.72
2023-01-29T16:51:04.070Z,31.77
2023-01-29T16:53:30.871Z,31.83
2023-01-29T16:55:57.765Z,31.80
2023-01-29T16:58:24.536Z,31.74
2023-01-29T17:00:51.311Z,31.46
2023-01-29T17:03:18.143Z,31.43
2023-01-29T17:05:44.875Z,31.30
2023-01-29T17:08:11.611Z,33.00
2023-01-29T17:10:38.354Z,36.55
2023-01-29T17:13:05.156Z,38.37
2023-01-29T17:15:31.937Z,34.95
2023-01-29T17:17:58.694Z,33.87
2023-01-29T17:20:26.948Z,33.24
2023-01-29T17:22:53.915Z,32.43
2023-01-29T17:25:21.317Z,32.58
2023-01-29T17:27:51.344Z,32.55
2023-01-29T17:30:18.158Z,32.18
2023-01-29T17:32:47.426Z,32.08
2023-01-29T17:35:14.524Z,31.95
2023-01-29T17:37:41.506Z,32.20
2023-01-29T17:40:08.267Z,31.78
2023-01-29T17:42:34.994Z,31.79
2023-01-29T17:45:01.857Z,31.82
2023-01-29T17:47:28.603Z,31.80
2023-01-29T17:49:55.353Z,31.61
2023-01-29T17:52:22.201Z,31.67
2023-01-29T17:54:48.966Z,31.59
2023-01-29T17:57:15.698Z,31.39
2023-01-29T17:59:43.870Z,31.50
2023-01-29T18:02:28.855Z,32.46
2023-01-29T18:04:56.729Z,36.64
2023-01-29T18:07:23.591Z,38.60
2023-01-29T18:09:50.400Z,35.36
2023-01-29T18:12:17.533Z,33.93
2023-01-29T18:14:44.362Z,33.42
2023-01-29T18:17:11.098Z,32.91
2023-01-29T18:19:37.833Z,32.85
2023-01-29T18:22:04.564Z,32.54
2023-01-29T18:24:31.416Z,32.28
2023-01-29T18:26:58.171Z,32.15
2023-01-29T18:29:29.829Z,32.21
2023-01-29T18:31:56.651Z,31.93
2023-01-29T18:34:23.428Z,31.90
2023-01-29T18:36:50.251Z,31.75
2023-01-29T18:39:16.998Z,31.93
2023-01-29T18:41:44.009Z,31.74
2023-01-29T18:44:10.774Z,31.80
2023-01-29T18:46:37.532Z,31.73
2023-01-29T18:49:05.054Z,31.60
2023-01-29T18:51:31.868Z,31.51
2023-01-29T18:53:58.603Z,31.61
2023-01-29T18:56:25.381Z,31.45
2023-01-29T18:58:52.767Z,33.18
2023-01-29T19:01:22.366Z,36.61
2023-01-29T19:03:49.146Z,38.75
2023-01-29T19:06:15.889Z,35.45
2023-01-29T19:08:43.766Z,34.11
2023-01-29T19:11:12.356Z,33.42
2023-01-29T19:13:40.351Z,32.90
2023-01-29T19:16:07.203Z,32.80
2023-01-29T19:18:33.943Z,32.41
2023-01-29T19:21:01.285Z,32.68
2023-01-29T19:23:28.036Z,32.18
2023-01-29T19:25:54.767Z,31.98
2023-01-29T19:28:21.782Z,31.99
2023-01-29T19:30:48.794Z,31.75
2023-01-29T19:33:15.636Z,31.75
2023-01-29T19:35:42.375Z,31.79
2023-01-29T19:38:09.110Z,31.91
2023-01-29T19:40:35.843Z,31.62
2023-01-29T19:43:02.630Z,31.59
2023-01-29T19:45:37.174Z,31.57
2023-01-29T19:48:20.162Z,31.80
2023-01-29T19:50:46.893Z,31.62
2023-01-29T19:53:13.624Z,35.00
2023-01-29T19:55:40.446Z,38.12
2023-01-29T19:58:07.183Z,37.13
2023-01-29T20:00:33.945Z,34.75
2023-01-29T20:03:00.715Z,33.80
2023-01-29T20:05:27.471Z,33.13
2023-01-29T20:07:54.244Z,32.67
2023-01-29T20:10:21.180Z,32.48
2023-01-29T20:12:48.004Z,32.40
2023-01-29T20:15:14.774Z,32.24
2023-01-29T20:17:41.517Z,32.28
2023-01-29T20:20:08.494Z,32.04
2023-01-29T20:22:35.273Z,31.95
2023-01-29T20:25:02.151Z,31.68
2023-01-29T20:27:28.917Z,31.59
2023-01-29T20:29:55.716Z,31.64
2023-01-29T20:32:22.560Z,31.67
2023-01-29T20:34:52.102Z,31.70
2023-01-29T20:37:19.419Z,31.58
2023-01-29T20:39:46.250Z,31.67
2023-01-29T20:42:12.993Z,31.50
2023-01-29T20:44:39.733Z,31.49
2023-01-29T20:47:06.495Z,35.85
2023-01-29T20:49:33.241Z,36.96
2023-01-29T20:52:00.014Z,36.89
2023-01-29T20:54:26.830Z,34.38
2023-01-29T20:56:53.969Z,33.45
2023-01-29T20:59:20.778Z,33.21
2023-01-29T21:01:47.564Z,32.96
2023-01-29T21:04:14.306Z,32.52
2023-01-29T21:06:41.051Z,32.32
2023-01-29T21:09:07.825Z,32.13
2023-01-29T21:11:34.552Z,32.08
2023-01-29T21:14:01.774Z,31.93
2023-01-29T21:16:28.600Z,31.82
2023-01-29T21:18:55.582Z,31.95
2023-01-29T21:21:22.457Z,31.92
2023-01-29T21:23:49.322Z,32.04
2023-01-29T21:26:16.094Z,31.69
2023-01-29T21:28:42.869Z,31.58
2023-01-29T21:31:09.988Z,31.51
2023-01-29T21:33:36.876Z,31.75
2023-01-29T21:36:03.674Z,31.86
2023-01-29T21:38:30.415Z,31.41
2023-01-29T21:40:57.157Z,31.88
2023-01-29T21:43:23.914Z,36.04
2023-01-29T21:45:51.542Z,37.79
2023-01-29T21:48:18.298Z,35.17
2023-01-29T21:50:45.050Z,33.74
2023-01-29T21:53:11.810Z,33.37
2023-01-29T21:55:38.555Z,32.69
2023-01-29T21:58:05.295Z,32.63
2023-01-29T22:00:32.172Z,32.43
2023-01-29T22:02:58.956Z,32.25
2023-01-29T22:05:26.496Z,32.09
2023-01-29T22:07:53.323Z,31.99
2023-01-29T22:10:20.751Z,32.03
2023-01-29T22:12:47.797Z,31.76
2023-01-29T22:15:14.566Z,31.70
2023-01-29T22:17:41.459Z,31.89
2023-01-29T22:20:08.304Z,31.65
2023-01-29T22:22:35.061Z,31.50
2023-01-29T22:25:01.851Z,31.70
2023-01-29T22:27:28.590Z,31.75
2023-01-29T22:29:55.345Z,31.51
2023-01-29T22:32:22.099Z,31.40
2023-01-29T22:34:48.873Z,31.58
2023-01-29T22:37:15.634Z,34.04
2023-01-29T22:39:42.390Z,37.28
2023-01-29T22:42:09.159Z,36.73
2023-01-29T22:44:36.004Z,35.57
2023-01-29T22:47:02.753Z,34.88
2023-01-29T22:49:29.924Z,33.32
2023-01-29T22:52:12.094Z,32.92
2023-01-29T22:54:38.851Z,32.32
2023-01-29T22:57:05.674Z,32.57
2023-01-29T22:59:32.437Z,32.57
2023-01-29T23:01:59.206Z,32.12
2023-01-29T23:04:25.984Z,31.98
2023-01-29T23:06:52.771Z,31.89
2023-01-29T23:09:19.542Z,31.75
2023-01-29T23:11:46.311Z,31.57
2023-01-29T23:14:13.059Z,31.77
2023-01-29T23:16:39.795Z,31.73
2023-01-29T23:19:06.543Z,31.55
2023-01-29T23:21:33.301Z,31.43
2023-01-29T23:24:01.045Z,31.33
2023-01-29T23:26:46.667Z,31.56
2023-01-29T23:29:13.442Z,31.60
2023-01-29T23:31:40.279Z,31.64
2023-01-29T23:34:07.053Z,31.61
2023-01-29T23:36:33.845Z,31.44
2023-01-29T23:39:00.586Z,34.44
2023-01-29T23:41:27.351Z,36.56
2023-01-29T23:43:54.169Z,37.39
2023-01-29T23:46:21.030Z,34.50
2023-01-29T23:48:47.818Z,33.63
2023-01-29T23:51:14.598Z,32.78
2023-01-29T23:53:41.321Z,32.39
2023-01-29T23:56:08.111Z,32.33
2023-01-29T23:58:34.910Z,32.12
